createdAt,value
2023-04-19T00:01:50.201Z,5.90
2023-04-19T00:04:19.067Z,5.60
2023-04-19T00:06:47.430Z,5.93
2023-04-19T00:09:15.463Z,6.00
2023-04-19T00:11:43.509Z,5.80
2023-04-19T00:14:11.564Z,5.63
2023-04-19T00:16:39.672Z,5.83
2023-04-19T00:19:09.261Z,5.83
2023-04-19T00:21:37.294Z,6.87
2023-04-19T00:24:05.789Z,5.83
2023-04-19T00:26:33.843Z,6.23
2023-04-19T00:29:01.949Z,6.17
2023-04-19T00:31:30.324Z,6.70
2023-04-19T00:33:58.699Z,6.80
2023-04-19T00:36:28.249Z,6.43
2023-04-19T00:38:56.280Z,6.30
2023-04-19T00:41:24.315Z,6.13
2023-04-19T00:43:52.304Z,6.37
2023-04-19T00:46:20.506Z,5.83
2023-04-19T00:48:49.774Z,6.27
2023-04-19T00:51:18.199Z,6.83
2023-04-19T00:53:47.786Z,5.97
2023-04-19T00:56:17.879Z,6.10
2023-04-19T00:58:46.290Z,6.43
2023-04-19T01:01:14.380Z,5.87
2023-04-19T01:03:42.794Z,6.37
2023-04-19T01:06:11.042Z,6.47
2023-04-19T01:08:39.639Z,5.57
2023-04-19T01:11:09.200Z,6.20
2023-04-19T01:13:37.288Z,6.60
2023-04-19T01:16:06.133Z,6.37
2023-04-19T01:18:37.550Z,5.67
2023-04-19T01:21:07.002Z,5.67
2023-04-19T01:23:36.580Z,6.20
2023-04-19T01:26:04.676Z,5.27
2023-04-19T01:28:32.890Z,5.33
2023-04-19T01:31:00.935Z,5.07
2023-04-19T01:33:28.969Z,4.90
2023-04-19T01:35:57.061Z,5.00
2023-04-19T01:38:25.092Z,5.33
2023-04-19T01:40:56.810Z,4.83
2023-04-19T01:43:24.862Z,4.87
2023-04-19T01:45:52.881Z,4.77
2023-04-19T01:48:20.930Z,4.13
2023-04-19T01:50:48.955Z,5.27
2023-04-19T01:53:16.989Z,4.60
2023-04-19T01:55:45.266Z,4.27
2023-04-19T01:58:14.798Z,4.33
2023-04-19T02:00:42.874Z,4.43
2023-04-19T02:03:11.271Z,4.00
2023-04-19T02:05:40.540Z,4.77
2023-04-19T02:08:08.566Z,4.20
2023-04-19T02:10:36.617Z,4.20
2023-04-19T02:13:04.673Z,4.47
2023-04-19T02:15:34.095Z,4.00
2023-04-19T02:18:02.171Z,3.90
2023-04-19T02:20:31.273Z,3.77
2023-04-19T02:22:59.356Z,3.70
2023-04-19T02:25:27.405Z,3.30
2023-04-19T02:27:55.478Z,3.30
2023-04-19T02:30:23.802Z,3.10
2023-04-19T02:32:55.005Z,3.10
2023-04-19T02:35:23.182Z,3.10
2023-04-19T02:37:51.262Z,3.10
2023-04-19T02:40:19.501Z,3.10
2023-04-19T02:42:47.512Z,2.60
2023-04-19T02:45:15.597Z,3.37
2023-04-19T02:47:43.672Z,3.47
2023-04-19T02:50:13.608Z,2.50
2023-04-19T02:52:41.841Z,2.63
2023-04-19T02:55:10.812Z,2.93
2023-04-19T02:57:38.885Z,3.07
2023-04-19T03:00:10.354Z,2.57
2023-04-19T03:02:39.440Z,2.83
2023-04-19T03:05:08.830Z,2.80
2023-04-19T03:07:38.229Z,2.90
2023-04-19T03:10:07.535Z,2.37
2023-04-19T03:12:35.599Z,2.07
2023-04-19T03:15:03.690Z,2.40
2023-04-19T03:17:31.831Z,2.43
2023-04-19T03:20:00.183Z,2.27
2023-04-19T03:22:28.203Z,2.20
2023-04-19T03:24:57.584Z,3.33
2023-04-19T03:27:25.698Z,1.97
2023-04-19T03:29:53.715Z,2.27
2023-04-19T03:32:21.729Z,2.73
2023-04-19T03:34:49.824Z,2.43
2023-04-19T03:37:17.877Z,2.30
2023-04-19T03:39:45.959Z,2.23
2023-04-19T03:42:15.398Z,2.50
2023-04-19T03:44:43.409Z,2.50
2023-04-19T03:47:11.445Z,2.57
2023-04-19T03:49:39.457Z,2.27
2023-04-19T03:52:07.457Z,2.47
2023-04-19T03:54:35.480Z,2.53
2023-04-19T03:57:03.507Z,2.00
2023-04-19T03:59:32.910Z,2.00
2023-04-19T04:02:00.999Z,2.40
2023-04-19T04:04:29.291Z,2.13
2023-04-19T04:06:57.480Z,2.20
2023-04-19T04:09:25.549Z,2.07
2023-04-19T04:11:53.538Z,1.83
2023-04-19T04:14:21.612Z,2.30
2023-04-19T04:16:51.043Z,2.10
2023-04-19T04:19:22.067Z,2.00
2023-04-19T04:21:50.326Z,1.80
2023-04-19T04:24:20.263Z,1.77
2023-04-19T04:26:49.844Z,1.73
2023-04-19T04:29:17.955Z,2.03
2023-04-19T04:31:45.981Z,2.23
2023-04-19T04:34:15.593Z,2.30
2023-04-19T04:36:43.783Z,2.10
2023-04-19T04:39:12.133Z,1.77
2023-04-19T04:41:42.151Z,2.20
2023-04-19T04:44:12.836Z,2.03
2023-04-19T04:46:51.475Z,2.00
2023-04-19T04:49:20.844Z,2.50
2023-04-19T04:51:48.877Z,1.90
2023-04-19T04:54:17.209Z,2.33
2023-04-19T04:56:45.509Z,2.20
2023-04-19T04:59:13.522Z,2.07
2023-04-19T05:01:42.001Z,2.17
2023-04-19T05:04:10.127Z,2.43
2023-04-19T05:06:40.901Z,2.27
2023-04-19T05:09:09.122Z,2.50
2023-04-19T05:11:37.159Z,2.20
2023-04-19T05:14:05.198Z,2.20
2023-04-19T05:16:34.390Z,2.17
2023-04-19T05:19:02.502Z,2.20
2023-04-19T05:21:30.865Z,1.93
2023-04-19T05:24:00.258Z,2.03
2023-04-19T05:26:28.310Z,1.93
2023-04-19T05:28:56.332Z,2.47
2023-04-19T05:31:24.414Z,1.87
2023-04-19T05:33:52.453Z,2.03
2023-04-19T05:36:20.461Z,2.00
2023-04-19T05:38:48.548Z,1.87
2023-04-19T05:41:17.925Z,1.83
2023-04-19T05:43:45.949Z,2.00
2023-04-19T05:46:13.996Z,1.73
2023-04-19T05:48:42.019Z,2.13
2023-04-19T05:51:10.084Z,2.27
2023-04-19T05:53:38.096Z,1.90
2023-04-19T05:56:06.612Z,2.20
2023-04-19T05:58:35.993Z,2.03
2023-04-19T06:01:04.951Z,2.33
2023-04-19T06:03:33.509Z,1.67
2023-04-19T06:06:01.817Z,1.87
2023-04-19T06:08:29.991Z,2.13
2023-04-19T06:11:02.266Z,1.70
2023-04-19T06:13:37.631Z,2.00
2023-04-19T06:16:06.466Z,1.97
2023-04-19T06:18:34.518Z,1.90
2023-04-19T06:21:02.524Z,2.10
2023-04-19T06:23:30.512Z,3.10
2023-04-19T06:25:58.523Z,2.30
2023-04-19T06:28:26.746Z,2.37
2023-04-19T06:30:56.114Z,1.87
2023-04-19T06:33:24.168Z,1.90
2023-04-19T06:35:52.177Z,1.93
2023-04-19T06:38:20.163Z,2.50
2023-04-19T06:40:48.171Z,2.43
2023-04-19T06:43:16.192Z,2.67
2023-04-19T06:45:44.202Z,2.00
2023-04-19T06:48:13.690Z,1.97
2023-04-19T06:50:41.724Z,1.97
2023-04-19T06:53:10.792Z,1.70
2023-04-19T06:55:38.851Z,1.90
2023-04-19T06:58:10.615Z,1.70
2023-04-19T07:00:38.853Z,1.80
2023-04-19T07:03:06.957Z,1.83
2023-04-19T07:05:37.824Z,2.40
2023-04-19T07:08:06.127Z,2.30
2023-04-19T07:10:34.189Z,2.00
2023-04-19T07:13:02.193Z,1.70
2023-04-19T07:15:30.214Z,1.90
2023-04-19T07:17:58.580Z,1.90
2023-04-19T07:20:26.706Z,1.30
2023-04-19T07:22:56.116Z,1.70
2023-04-19T07:25:24.134Z,2.00
2023-04-19T07:27:54.457Z,2.00
2023-04-19T07:30:22.753Z,2.10
2023-04-19T07:32:51.914Z,1.80
2023-04-19T07:35:20.872Z,1.63
2023-04-19T07:37:48.952Z,2.63
2023-04-19T07:40:19.208Z,1.80
2023-04-19T07:42:47.240Z,1.87
2023-04-19T07:45:15.715Z,1.63
2023-04-19T07:47:44.007Z,2.03
2023-04-19T07:50:12.661Z,2.20
2023-04-19T07:52:40.935Z,1.80
2023-04-19T07:55:09.804Z,1.67
2023-04-19T07:57:39.260Z,1.80
2023-04-19T08:00:10.471Z,1.73
2023-04-19T08:02:38.607Z,1.83
2023-04-19T08:05:07.683Z,1.93
2023-04-19T08:07:35.793Z,1.50
2023-04-19T08:10:03.789Z,1.60
2023-04-19T08:12:38.317Z,1.77
2023-04-19T08:15:36.169Z,1.77
2023-04-19T08:18:00.729Z,1.80
2023-04-19T08:20:28.993Z,1.80
2023-04-19T08:22:57.889Z,2.10
2023-04-19T08:25:28.586Z,1.87
2023-04-19T08:27:57.484Z,1.60
2023-04-19T08:30:26.939Z,1.70
2023-04-19T08:32:57.020Z,1.60
2023-04-19T08:35:26.082Z,1.83
2023-04-19T08:37:54.128Z,1.80
2023-04-19T08:40:22.241Z,2.27
2023-04-19T08:42:50.332Z,2.17
2023-04-19T08:45:27.890Z,2.03
2023-04-19T08:48:01.792Z,1.63
2023-04-19T08:50:36.207Z,2.10
2023-04-19T08:55:58.432Z,2.93
2023-04-19T08:58:46.643Z,2.10
2023-04-19T09:01:33.910Z,2.20
2023-04-19T09:04:16.966Z,2.27
2023-04-19T09:06:55.491Z,2.23
2023-04-19T09:09:36.520Z,1.80
2023-04-19T09:12:18.013Z,2.13
2023-04-19T09:15:00.534Z,2.07
2023-04-19T09:17:29.671Z,2.20
2023-04-19T09:19:59.623Z,2.37
2023-04-19T09:22:27.789Z,2.37
2023-04-19T09:27:28.998Z,6.47
2023-04-19T09:29:58.657Z,3.93
2023-04-19T09:32:27.596Z,2.07
2023-04-19T09:34:58.393Z,2.30
2023-04-19T09:39:58.548Z,2.43
2023-04-19T09:43:05.341Z,2.00
2023-04-19T09:45:44.544Z,2.10
2023-04-19T09:48:14.051Z,2.07
2023-04-19T09:50:59.927Z,2.53
2023-04-19T09:53:34.317Z,2.70
2023-04-19T09:56:04.338Z,2.20
2023-04-19T09:58:49.019Z,2.93
2023-04-19T10:01:22.595Z,3.40
2023-04-19T10:03:52.794Z,2.40
2023-04-19T10:08:56.342Z,2.33
2023-04-19T10:11:27.658Z,2.50
2023-04-19T10:14:01.019Z,2.80
2023-04-19T10:16:31.293Z,3.07
2023-04-19T10:18:59.598Z,2.90
2023-04-19T10:21:30.958Z,1.90
2023-04-19T10:24:00.159Z,2.40
2023-04-19T10:26:28.260Z,3.07
2023-04-19T10:28:57.920Z,2.80
2023-04-19T10:31:27.324Z,2.97
2023-04-19T10:33:57.542Z,2.50
2023-04-19T10:36:31.087Z,2.70
2023-04-19T10:38:59.132Z,2.40
2023-04-19T10:41:59.604Z,2.80
2023-04-19T10:44:27.767Z,2.30
2023-04-19T10:46:55.845Z,2.80
2023-04-19T10:49:24.938Z,2.43
2023-04-19T10:51:54.918Z,2.67
2023-04-19T10:54:31.657Z,2.37
2023-04-19T10:57:02.746Z,2.73
2023-04-19T10:59:32.099Z,2.53
2023-04-19T11:02:01.930Z,2.80
2023-04-19T11:04:59.264Z,2.27
2023-04-19T11:07:29.356Z,2.70
2023-04-19T11:09:57.390Z,2.23
2023-04-19T11:12:25.406Z,2.57
2023-04-19T11:14:54.639Z,2.33
2023-04-19T11:17:27.104Z,2.40
2023-04-19T11:19:56.549Z,2.40
2023-04-19T11:22:44.174Z,2.30
2023-04-19T11:25:13.574Z,2.80
2023-04-19T11:27:43.023Z,2.20
2023-04-19T11:30:13.546Z,2.80
2023-04-19T11:32:47.300Z,2.33
2023-04-19T11:35:15.866Z,2.33
2023-04-19T11:37:45.256Z,2.63
2023-04-19T11:40:17.295Z,2.97
2023-04-19T11:42:45.995Z,2.43
2023-04-19T11:45:29.830Z,2.20
2023-04-19T11:48:00.731Z,3.03
2023-04-19T11:50:33.519Z,2.40
2023-04-19T11:53:11.569Z,3.00
2023-04-19T11:55:39.824Z,2.47
2023-04-19T11:58:10.572Z,2.70
2023-04-19T12:00:38.807Z,2.47
2023-04-19T12:03:07.227Z,2.80
2023-04-19T12:05:35.479Z,2.70
2023-04-19T12:08:08.002Z,2.40
2023-04-19T12:10:36.912Z,2.47
2023-04-19T12:13:18.349Z,2.80
2023-04-19T12:15:49.157Z,2.70
2023-04-19T12:18:17.274Z,2.90
2023-04-19T12:20:46.775Z,2.60
2023-04-19T12:23:16.675Z,2.80
2023-04-19T12:25:46.230Z,2.63
2023-04-19T12:28:15.073Z,3.17
2023-04-19T12:30:43.882Z,2.93
2023-04-19T12:33:12.179Z,2.63
2023-04-19T12:35:41.004Z,3.10
2023-04-19T12:38:09.576Z,3.10
2023-04-19T12:40:39.020Z,3.37
2023-04-19T12:43:08.577Z,3.43
2023-04-19T12:45:36.677Z,3.40
2023-04-19T12:48:05.031Z,2.60
2023-04-19T12:50:33.119Z,2.80
2023-04-19T12:53:01.161Z,2.83
2023-04-19T12:55:29.184Z,3.57
2023-04-19T12:57:58.581Z,2.23
2023-04-19T13:00:26.625Z,3.20
2023-04-19T13:02:55.308Z,2.67
2023-04-19T13:05:23.685Z,2.90
2023-04-19T13:07:51.774Z,2.87
2023-04-19T13:10:21.094Z,3.57
2023-04-19T13:12:49.323Z,3.57
2023-04-19T13:15:18.934Z,3.50
2023-04-19T13:17:47.084Z,2.63
2023-04-19T13:20:15.158Z,3.00
2023-04-19T13:22:43.189Z,3.93
2023-04-19T13:25:11.573Z,2.90
2023-04-19T13:27:39.640Z,2.60
2023-04-19T13:30:09.202Z,2.70
2023-04-19T13:32:38.622Z,2.63
2023-04-19T13:35:07.411Z,3.03
2023-04-19T13:37:35.414Z,2.87
2023-04-19T13:40:18.554Z,2.70
2023-04-19T13:42:47.700Z,2.67
2023-04-19T13:45:15.766Z,2.83
2023-04-19T13:47:45.186Z,2.77
2023-04-19T13:50:15.064Z,3.17
2023-04-19T13:52:43.174Z,3.17
2023-04-19T13:55:11.384Z,3.07
2023-04-19T13:57:39.417Z,2.87
2023-04-19T14:00:08.974Z,2.93
2023-04-19T14:02:37.315Z,3.13
2023-04-19T14:05:07.934Z,3.10
2023-04-19T14:07:35.966Z,2.90
2023-04-19T14:10:04.030Z,2.87
2023-04-19T14:12:32.078Z,3.50
2023-04-19T14:15:00.201Z,2.77
2023-04-19T14:17:28.254Z,3.27
2023-04-19T14:19:57.146Z,3.13
2023-04-19T14:22:26.610Z,3.20
2023-04-19T14:24:54.673Z,2.57
2023-04-19T14:27:22.705Z,3.10
2023-04-19T14:29:50.749Z,5.00
2023-04-19T14:32:25.981Z,5.30
2023-04-19T14:34:54.894Z,13.67
2023-04-19T14:37:24.239Z,7.00
2023-04-19T14:39:54.038Z,4.33
2023-04-19T14:42:23.047Z,3.13
2023-04-19T14:44:52.570Z,3.83
2023-04-19T14:47:21.408Z,3.00
2023-04-19T14:49:49.668Z,3.17
2023-04-19T14:52:18.173Z,3.20
2023-04-19T14:54:46.327Z,2.63
2023-04-19T14:57:15.829Z,3.20
2023-04-19T14:59:43.875Z,3.37
2023-04-19T15:02:13.318Z,3.10
2023-04-19T15:04:45.156Z,3.07
2023-04-19T15:07:13.293Z,3.07
2023-04-19T15:09:41.383Z,2.90
2023-04-19T15:12:09.449Z,3.17
2023-04-19T15:14:39.744Z,3.20
2023-04-19T15:17:07.764Z,3.03
2023-04-19T15:19:35.836Z,3.50
2023-04-19T15:22:04.958Z,3.23
2023-04-19T15:24:35.300Z,3.30
2023-04-19T15:27:04.035Z,3.33
2023-04-19T15:29:32.099Z,3.37
2023-04-19T15:32:02.589Z,3.63
2023-04-19T15:34:30.705Z,3.63
2023-04-19T15:36:58.761Z,3.80
2023-04-19T15:39:26.920Z,4.13
2023-04-19T15:41:54.996Z,3.73
2023-04-19T15:44:23.036Z,4.20
2023-04-19T15:46:51.117Z,3.50
2023-04-19T15:49:20.556Z,3.40
2023-04-19T15:51:48.576Z,4.07
2023-04-19T15:54:16.910Z,3.63
2023-04-19T15:56:44.944Z,3.30
2023-04-19T15:59:12.975Z,3.50
2023-04-19T16:01:41.152Z,3.67
2023-04-19T16:04:09.388Z,3.50
2023-04-19T16:06:38.892Z,3.53
2023-04-19T16:09:08.209Z,3.20
2023-04-19T16:11:36.270Z,3.83
2023-04-19T16:14:04.296Z,2.97
2023-04-19T16:16:34.811Z,3.13
2023-04-19T16:19:02.942Z,3.63
2023-04-19T16:21:31.613Z,3.80
2023-04-19T16:24:01.767Z,3.77
2023-04-19T16:26:30.245Z,3.40
2023-04-19T16:28:59.195Z,3.77
2023-04-19T16:31:27.427Z,3.50
2023-04-19T16:33:55.577Z,3.60
2023-04-19T16:36:23.700Z,3.60
2023-04-19T16:38:51.726Z,3.83
2023-04-19T16:41:21.288Z,3.63
2023-04-19T16:43:49.347Z,3.80
2023-04-19T16:46:17.424Z,3.53
2023-04-19T16:48:45.488Z,3.80
2023-04-19T16:51:13.525Z,4.30
2023-04-19T16:53:42.258Z,3.43
2023-04-19T16:56:10.292Z,4.07
2023-04-19T16:58:40.091Z,4.00
2023-04-19T17:01:09.054Z,3.67
2023-04-19T17:03:37.316Z,3.90
2023-04-19T17:06:06.315Z,3.40
2023-04-19T17:08:34.845Z,3.53
2023-04-19T17:11:02.876Z,3.43
2023-04-19T17:13:30.986Z,3.53
2023-04-19T17:16:00.768Z,4.03
2023-04-19T17:18:28.859Z,4.40
2023-04-19T17:20:56.924Z,4.37
2023-04-19T17:23:24.963Z,3.90
2023-04-19T17:25:53.027Z,3.90
2023-04-19T17:28:21.043Z,4.07
2023-04-19T17:30:49.078Z,4.67
2023-04-19T17:33:18.509Z,4.63
2023-04-19T17:35:46.533Z,4.20
2023-04-19T17:38:14.555Z,4.00
2023-04-19T17:40:42.635Z,4.00
2023-04-19T17:43:11.339Z,4.27
2023-04-19T17:45:39.378Z,4.47
2023-04-19T17:48:07.710Z,3.93
2023-04-19T17:50:37.273Z,4.07
2023-04-19T17:53:05.361Z,4.00
2023-04-19T17:55:33.771Z,3.53
2023-04-19T17:58:01.911Z,3.70
2023-04-19T18:00:30.085Z,3.83
2023-04-19T18:02:58.227Z,4.47
2023-04-19T18:05:26.653Z,4.17
2023-04-19T18:07:57.539Z,3.57
2023-04-19T18:10:25.618Z,3.90
2023-04-19T18:12:53.831Z,3.67
2023-04-19T18:15:22.147Z,4.03
2023-04-19T18:17:51.558Z,4.03
2023-04-19T18:20:20.332Z,4.43
2023-04-19T18:22:51.742Z,4.20
2023-04-19T18:25:21.687Z,4.57
2023-04-19T18:27:50.609Z,4.30
2023-04-19T18:30:18.624Z,4.30
2023-04-19T18:32:47.864Z,3.90
2023-04-19T18:35:16.038Z,4.00
2023-04-19T18:37:44.059Z,4.13
2023-04-19T18:40:12.675Z,4.53
2023-04-19T18:42:42.249Z,4.43
2023-04-19T18:45:11.350Z,4.30
2023-04-19T18:47:39.451Z,4.23
2023-04-19T18:50:09.005Z,4.47
2023-04-19T18:52:37.300Z,4.50
2023-04-19T18:55:05.857Z,3.73
2023-04-19T18:57:35.454Z,3.87
2023-04-19T19:00:12.067Z,4.30
2023-04-19T19:02:41.190Z,5.23
2023-04-19T19:05:13.102Z,4.00
2023-04-19T19:07:42.146Z,4.23
2023-04-19T19:10:19.114Z,4.23
2023-04-19T19:12:49.886Z,4.30
2023-04-19T19:15:19.685Z,4.60
2023-04-19T19:17:49.676Z,4.00
2023-04-19T19:20:31.226Z,4.20
2023-04-19T19:22:59.357Z,4.20
2023-04-19T19:25:27.669Z,4.50
2023-04-19T19:28:07.446Z,4.20
2023-04-19T19:30:42.852Z,4.70
2023-04-19T19:33:11.078Z,4.37
2023-04-19T19:35:39.982Z,4.63
2023-04-19T19:38:08.215Z,4.90
2023-04-19T19:40:40.863Z,5.13
2023-04-19T19:43:24.252Z,4.80
2023-04-19T19:45:53.668Z,5.10
2023-04-19T19:48:21.734Z,5.57
2023-04-19T19:51:17.189Z,5.47
2023-04-19T19:53:38.179Z,5.07
2023-04-19T19:56:12.983Z,5.40
2023-04-19T19:58:51.440Z,6.23
2023-04-19T20:01:22.770Z,6.70
2023-04-19T20:03:51.614Z,5.70
2023-04-19T20:07:03.350Z,5.70
2023-04-19T20:09:08.104Z,6.13
2023-04-19T20:11:36.182Z,6.07
2023-04-19T20:14:04.239Z,5.77
2023-04-19T20:16:35.399Z,5.50
2023-04-19T20:19:09.708Z,5.10
2023-04-19T20:21:38.640Z,4.97
2023-04-19T20:24:07.810Z,5.60
2023-04-19T20:26:36.146Z,5.03
2023-04-19T20:29:04.297Z,5.40
2023-04-19T20:31:33.759Z,5.50
2023-04-19T20:34:01.827Z,5.17
2023-04-19T20:36:31.949Z,5.67
2023-04-19T20:39:01.832Z,5.87
2023-04-19T20:41:29.913Z,5.60
2023-04-19T20:43:59.775Z,5.73
2023-04-19T20:46:28.252Z,5.13
2023-04-19T20:48:57.902Z,5.03
2023-04-19T20:51:26.578Z,5.23
2023-04-19T20:53:54.637Z,5.70
2023-04-19T20:56:22.987Z,5.57
2023-04-19T20:58:51.378Z,5.27
2023-04-19T21:01:22.500Z,5.93
2023-04-19T21:03:52.111Z,5.97
2023-04-19T21:06:23.325Z,5.60
2023-04-19T21:08:51.648Z,5.67
2023-04-19T21:11:19.726Z,5.93
2023-04-19T21:13:47.778Z,6.20
2023-04-19T21:16:15.899Z,5.73
2023-04-19T21:18:43.992Z,5.97
2023-04-19T21:21:12.041Z,6.07
2023-04-19T21:23:41.441Z,6.47
2023-04-19T21:26:09.651Z,5.73
2023-04-19T21:28:37.750Z,6.23
2023-04-19T21:31:05.958Z,5.73
2023-04-19T21:33:35.747Z,5.87
2023-04-19T21:36:04.298Z,6.27
2023-04-19T21:38:32.329Z,5.53
2023-04-19T21:41:01.818Z,6.57
2023-04-19T21:43:31.562Z,6.37
2023-04-19T21:46:01.694Z,5.97
2023-04-19T21:48:29.705Z,6.43
2023-04-19T21:50:57.725Z,6.37
2023-04-19T21:53:25.722Z,5.87
2023-04-19T21:55:53.749Z,6.10
2023-04-19T21:58:23.148Z,7.30
2023-04-19T22:00:53.399Z,6.20
2023-04-19T22:03:21.712Z,6.67
2023-04-19T22:05:50.018Z,6.63
2023-04-19T22:08:18.461Z,6.60
2023-04-19T22:10:46.617Z,6.57
2023-04-19T22:13:17.494Z,6.90
2023-04-19T22:15:46.905Z,6.70
2023-04-19T22:18:14.950Z,6.93
2023-04-19T22:20:43.081Z,7.50
2023-04-19T22:23:11.154Z,7.00
2023-04-19T22:25:39.158Z,6.40
2023-04-19T22:28:07.844Z,6.87
2023-04-19T22:30:36.177Z,6.70
2023-04-19T22:33:05.658Z,6.50
2023-04-19T22:35:33.743Z,6.10
2023-04-19T22:38:01.845Z,7.13
2023-04-19T22:40:29.912Z,7.47
2023-04-19T22:42:57.945Z,6.97
2023-04-19T22:45:26.159Z,6.83
2023-04-19T22:47:54.335Z,6.33
2023-04-19T22:50:23.907Z,6.50
2023-04-19T22:52:52.142Z,6.80
2023-04-19T22:55:20.138Z,7.20
2023-04-19T22:57:48.212Z,6.33
2023-04-19T23:00:16.874Z,6.77
2023-04-19T23:02:44.939Z,7.60
2023-04-19T23:05:13.252Z,7.20
2023-04-19T23:07:43.773Z,7.43
2023-04-19T23:10:12.429Z,7.10
2023-04-19T23:12:40.734Z,6.93
2023-04-19T23:15:10.949Z,7.10
2023-04-19T23:17:41.167Z,6.73
2023-04-19T23:20:11.274Z,7.20
2023-04-19T23:22:39.343Z,7.07
2023-04-19T23:25:10.056Z,7.27
2023-04-19T23:27:38.186Z,7.40
2023-04-19T23:30:08.015Z,6.90
2023-04-19T23:32:36.115Z,7.07
2023-04-19T23:35:04.302Z,7.60
2023-04-19T23:37:32.350Z,7.07
2023-04-19T23:40:00.419Z,6.57
2023-04-19T23:42:29.940Z,6.80
2023-04-19T23:44:57.990Z,6.53
2023-04-19T23:47:26.618Z,7.07
2023-04-19T23:49:54.651Z,7.20
2023-04-19T23:52:23.061Z,7.53
2023-04-19T23:54:51.140Z,7.30
2023-04-19T23:57:19.913Z,7.47
2023-04-19T23:59:49.297Z,6.77
